Terrace Airport
CYXT : rendu visible

Aérodrome :











RETROUVEZ-NOUS SUR...

 
LOGIN :

S'inscrire | Disclaimer

   EN    FR    IT 

 









Légende :    VFR   VFR Marginal   IFR   IFR Intensif   IFR Très Intensif
Visi : 
Plafond : 
>= 8 km
>= 3000ft
5 à 8 km
1000 à 3000 ft
1500m à 5 km
500 à 1000 ft
800 à 1500m
200 à 500 ft
< 800m
< 200 ft
Symboles :   Orages  Brouillard  Fortes neiges  Fortes précipitations  Vent > 20 kt






- Altitude de l'aérodrome : 713 ft
- Code IATA : YXT


CYXT - Terrace

DERNIER METAR :
  • 210400Z 32003KT 6SM -RA BR FEW004 FEW014 OVC020 03/02 A3009 RMK SF1SC1SC6 SLP202

METARs EXPIRÉS :
  • 210300Z 36003KT 6SM -RA BR FEW003 SCT012 BKN020 OVC060 03/03 A3009 RMK SF1SC2SC3SC2 SLP199
  • 210200Z 07002KT 6SM -RA BR FEW003 SCT010 OVC020 04/03 A3008 RMK SF2SC2SC4 SLP198

TAF TAF CYXT
Valide du 21 à 01h jusqu'au 21 à 13h UTC


210038Z 2101/2113 VRB03KT P6SM FEW003 SCT012 OVC030
TEMPO 2101/2107 5SM -RA BR SCT003 OVC012
PROB40 2101/2107 1SM -DZ BR OVC003
FM210700 36006KT P6SM OVC020 RMK NXT FCST BY 210700Z
FIR CZVR / Amérique du Nord



MET'MAP, la Météo Aéronautique d'un coup d'oeil ! - Copyright ORBIFLY Décembre 2007 - Disclaimer

ORBIFLY MET'MAP TEAM :

Programmation & Développement : Alexandra Zaïnal
Sur une idée originale de : Baudouin d'Aumeries
Assistance à la programmation : Marc-Olivier Méhu
Soutien technique & logistique : Manuel Goepfert

Contact : metmap@orbifly.com




SOURCES & CREDITS :

   NOAA       Earth
Advisory